sensor_id;sensor_type;location;lat;lon;timestamp;P1;durP1;ratioP1;P2;durP2;ratioP2
9661;SDS011;24982;52.344;12.990;2022-10-26T00:01:36;6.57;;;3.30;;
9661;SDS011;24982;52.344;12.990;2022-10-26T00:04:38;4.30;;;3.40;;
9661;SDS011;24982;52.344;12.990;2022-10-26T00:07:40;5.18;;;3.38;;
9661;SDS011;24982;52.344;12.990;2022-10-26T00:10:43;8.07;;;3.40;;
9661;SDS011;24982;52.344;12.990;2022-10-26T00:13:45;4.00;;;3.20;;
9661;SDS011;24982;52.344;12.990;2022-10-26T00:16:48;3.80;;;3.20;;
9661;SDS011;24982;52.344;12.990;2022-10-26T00:19:50;3.85;;;3.50;;
9661;SDS011;24982;52.344;12.990;2022-10-26T00:22:52;5.93;;;3.63;;
9661;SDS011;24982;52.344;12.990;2022-10-26T00:25:55;5.10;;;3.40;;
9661;SDS011;24982;52.344;12.990;2022-10-26T00:28:58;3.78;;;3.30;;
9661;SDS011;24982;52.344;12.990;2022-10-26T00:32:00;4.20;;;3.20;;
9661;SDS011;24982;52.344;12.990;2022-10-26T00:35:02;4.18;;;3.35;;
9661;SDS011;24982;52.344;12.990;2022-10-26T00:38:05;6.05;;;3.50;;
9661;SDS011;24982;52.344;12.990;2022-10-26T00:41:10;3.55;;;3.13;;
9661;SDS011;24982;52.344;12.990;2022-10-26T00:47:55;5.57;;;3.40;;
9661;SDS011;24982;52.344;12.990;2022-10-26T00:51:00;3.20;;;2.90;;
9661;SDS011;24982;52.344;12.990;2022-10-26T00:54:08;3.45;;;3.15;;
9661;SDS011;24982;52.344;12.990;2022-10-26T00:57:14;7.78;;;3.20;;
9661;SDS011;24982;52.344;12.990;2022-10-26T01:00:17;3.50;;;3.20;;
9661;SDS011;24982;52.344;12.990;2022-10-26T01:03:19;7.68;;;3.17;;
9661;SDS011;24982;52.344;12.990;2022-10-26T01:06:24;6.88;;;3.30;;
9661;SDS011;24982;52.344;12.990;2022-10-26T01:09:26;5.18;;;2.92;;
9661;SDS011;24982;52.344;12.990;2022-10-26T01:12:30;4.13;;;2.75;;
9661;SDS011;24982;52.344;12.990;2022-10-26T01:15:36;4.82;;;2.80;;
9661;SDS011;24982;52.344;12.990;2022-10-26T01:18:43;6.82;;;3.03;;
9661;SDS011;24982;52.344;12.990;2022-10-26T01:21:49;3.47;;;3.10;;
9661;SDS011;24982;52.344;12.990;2022-10-26T01:25:00;3.88;;;3.05;;
9661;SDS011;24982;52.344;12.990;2022-10-26T01:28:06;5.95;;;2.75;;
9661;SDS011;24982;52.344;12.990;2022-10-26T01:31:16;5.63;;;3.17;;
9661;SDS011;24982;52.344;12.990;2022-10-26T01:34:23;6.13;;;2.80;;
9661;SDS011;24982;52.344;12.990;2022-10-26T01:37:34;4.85;;;2.85;;
9661;SDS011;24982;52.344;12.990;2022-10-26T01:40:40;4.03;;;3.10;;
9661;SDS011;24982;52.344;12.990;2022-10-26T01:43:48;4.35;;;2.83;;
9661;SDS011;24982;52.344;12.990;2022-10-26T01:46:54;4.45;;;3.17;;
9661;SDS011;24982;52.344;12.990;2022-10-26T01:49:59;4.30;;;2.85;;
9661;SDS011;24982;52.344;12.990;2022-10-26T01:53:04;4.68;;;3.28;;
9661;SDS011;24982;52.344;12.990;2022-10-26T01:56:08;5.80;;;3.20;;
9661;SDS011;24982;52.344;12.990;2022-10-26T01:59:20;7.35;;;3.28;;
9661;SDS011;24982;52.344;12.990;2022-10-26T02:02:47;6.05;;;3.20;;
9661;SDS011;24982;52.344;12.990;2022-10-26T02:06:09;7.28;;;3.30;;
9661;SDS011;24982;52.344;12.990;2022-10-26T02:09:20;4.40;;;3.20;;
9661;SDS011;24982;52.344;12.990;2022-10-26T02:12:30;4.43;;;3.25;;
9661;SDS011;24982;52.344;12.990;2022-10-26T02:15:39;6.55;;;3.63;;
9661;SDS011;24982;52.344;12.990;2022-10-26T02:18:51;5.53;;;3.45;;
9661;SDS011;24982;52.344;12.990;2022-10-26T02:22:01;5.32;;;3.50;;
9661;SDS011;24982;52.344;12.990;2022-10-26T02:25:10;4.13;;;3.40;;
9661;SDS011;24982;52.344;12.990;2022-10-26T02:28:16;4.07;;;3.67;;
9661;SDS011;24982;52.344;12.990;2022-10-26T02:31:22;3.60;;;3.30;;
9661;SDS011;24982;52.344;12.990;2022-10-26T02:34:27;4.97;;;3.08;;
9661;SDS011;24982;52.344;12.990;2022-10-26T02:37:30;3.53;;;3.20;;
9661;SDS011;24982;52.344;12.990;2022-10-26T02:40:34;5.85;;;3.05;;
9661;SDS011;24982;52.344;12.990;2022-10-26T02:43:40;2.90;;;2.60;;
9661;SDS011;24982;52.344;12.990;2022-10-26T02:46:45;10.07;;;3.00;;
9661;SDS011;24982;52.344;12.990;2022-10-26T02:49:49;6.57;;;3.08;;
9661;SDS011;24982;52.344;12.990;2022-10-26T02:52:53;5.10;;;3.35;;
9661;SDS011;24982;52.344;12.990;2022-10-26T02:56:03;4.25;;;3.60;;
9661;SDS011;24982;52.344;12.990;2022-10-26T02:59:10;8.57;;;4.32;;
9661;SDS011;24982;52.344;12.990;2022-10-26T03:02:13;4.95;;;4.55;;
9661;SDS011;24982;52.344;12.990;2022-10-26T03:05:20;5.63;;;4.47;;
9661;SDS011;24982;52.344;12.990;2022-10-26T03:08:24;4.88;;;4.32;;
9661;SDS011;24982;52.344;12.990;2022-10-26T03:11:26;4.25;;;3.90;;
9661;SDS011;24982;52.344;12.990;2022-10-26T03:14:28;4.80;;;4.30;;
9661;SDS011;24982;52.344;12.990;2022-10-26T03:17:30;4.50;;;4.10;;
9661;SDS011;24982;52.344;12.990;2022-10-26T03:20:33;5.28;;;4.78;;
9661;SDS011;24982;52.344;12.990;2022-10-26T03:23:36;5.18;;;4.68;;
9661;SDS011;24982;52.344;12.990;2022-10-26T03:26:37;5.22;;;4.30;;
9661;SDS011;24982;52.344;12.990;2022-10-26T03:29:39;5.15;;;4.30;;
9661;SDS011;24982;52.344;12.990;2022-10-26T03:32:42;4.53;;;4.13;;
9661;SDS011;24982;52.344;12.990;2022-10-26T03:35:45;5.28;;;4.80;;
9661;SDS011;24982;52.344;12.990;2022-10-26T03:38:47;5.95;;;4.20;;
9661;SDS011;24982;52.344;12.990;2022-10-26T03:41:49;5.68;;;4.70;;
9661;SDS011;24982;52.344;12.990;2022-10-26T03:44:51;5.55;;;4.78;;
9661;SDS011;24982;52.344;12.990;2022-10-26T03:47:53;5.82;;;5.07;;
9661;SDS011;24982;52.344;12.990;2022-10-26T03:50:57;7.57;;;5.25;;
9661;SDS011;24982;52.344;12.990;2022-10-26T03:53:59;5.88;;;5.30;;
9661;SDS011;24982;52.344;12.990;2022-10-26T03:57:01;7.93;;;5.72;;
9661;SDS011;24982;52.344;12.990;2022-10-26T04:00:04;6.55;;;5.97;;
9661;SDS011;24982;52.344;12.990;2022-10-26T04:03:11;6.60;;;5.85;;
9661;SDS011;24982;52.344;12.990;2022-10-26T04:06:15;8.77;;;6.65;;
9661;SDS011;24982;52.344;12.990;2022-10-26T04:09:17;9.88;;;7.03;;
9661;SDS011;24982;52.344;12.990;2022-10-26T04:12:19;8.63;;;7.20;;
9661;SDS011;24982;52.344;12.990;2022-10-26T04:15:21;9.18;;;7.40;;
9661;SDS011;24982;52.344;12.990;2022-10-26T04:18:23;11.32;;;8.65;;
9661;SDS011;24982;52.344;12.990;2022-10-26T04:21:27;10.00;;;8.45;;
9661;SDS011;24982;52.344;12.990;2022-10-26T04:24:29;8.85;;;7.95;;
9661;SDS011;24982;52.344;12.990;2022-10-26T04:27:31;10.73;;;8.25;;
9661;SDS011;24982;52.344;12.990;2022-10-26T04:30:34;9.35;;;8.10;;
9661;SDS011;24982;52.344;12.990;2022-10-26T04:33:36;11.10;;;8.73;;
9661;SDS011;24982;52.344;12.990;2022-10-26T04:36:40;8.30;;;7.50;;
9661;SDS011;24982;52.344;12.990;2022-10-26T04:39:42;10.07;;;7.40;;
9661;SDS011;24982;52.344;12.990;2022-10-26T04:42:44;8.18;;;7.00;;
9661;SDS011;24982;52.344;12.990;2022-10-26T04:45:47;8.85;;;7.25;;
9661;SDS011;24982;52.344;12.990;2022-10-26T04:48:49;7.43;;;6.72;;
9661;SDS011;24982;52.344;12.990;2022-10-26T04:51:52;8.88;;;6.57;;
9661;SDS011;24982;52.344;12.990;2022-10-26T04:54:54;6.78;;;6.18;;
9661;SDS011;24982;52.344;12.990;2022-10-26T04:57:56;8.35;;;5.72;;
9661;SDS011;24982;52.344;12.990;2022-10-26T05:00:59;7.45;;;5.53;;
9661;SDS011;24982;52.344;12.990;2022-10-26T05:04:01;6.95;;;6.35;;
9661;SDS011;24982;52.344;12.990;2022-10-26T05:07:05;7.35;;;6.65;;
9661;SDS011;24982;52.344;12.990;2022-10-26T05:10:07;7.95;;;7.03;;
9661;SDS011;24982;52.344;12.990;2022-10-26T05:13:10;8.38;;;7.57;;
9661;SDS011;24982;52.344;12.990;2022-10-26T05:16:13;9.57;;;7.75;;
9661;SDS011;24982;52.344;12.990;2022-10-26T05:19:15;8.38;;;7.57;;
9661;SDS011;24982;52.344;12.990;2022-10-26T05:22:19;7.85;;;7.07;;
9661;SDS011;24982;52.344;12.990;2022-10-26T05:25:21;8.02;;;7.35;;
9661;SDS011;24982;52.344;12.990;2022-10-26T05:28:23;8.25;;;7.43;;
9661;SDS011;24982;52.344;12.990;2022-10-26T05:31:25;7.68;;;6.90;;
9661;SDS011;24982;52.344;12.990;2022-10-26T05:34:27;7.97;;;7.20;;
9661;SDS011;24982;52.344;12.990;2022-10-26T05:37:30;7.40;;;6.63;;
9661;SDS011;24982;52.344;12.990;2022-10-26T05:40:32;7.15;;;6.45;;
9661;SDS011;24982;52.344;12.990;2022-10-26T05:43:34;8.00;;;6.55;;
9661;SDS011;24982;52.344;12.990;2022-10-26T05:46:36;7.13;;;6.50;;
9661;SDS011;24982;52.344;12.990;2022-10-26T05:49:38;7.72;;;6.90;;
9661;SDS011;24982;52.344;12.990;2022-10-26T05:52:43;8.32;;;7.35;;
9661;SDS011;24982;52.344;12.990;2022-10-26T05:55:51;7.70;;;6.75;;
9661;SDS011;24982;52.344;12.990;2022-10-26T05:58:54;7.60;;;6.90;;
9661;SDS011;24982;52.344;12.990;2022-10-26T06:01:59;7.65;;;6.82;;
9661;SDS011;24982;52.344;12.990;2022-10-26T06:05:10;6.97;;;6.28;;
9661;SDS011;24982;52.344;12.990;2022-10-26T06:08:22;7.50;;;6.70;;
9661;SDS011;24982;52.344;12.990;2022-10-26T06:11:25;7.43;;;6.60;;
9661;SDS011;24982;52.344;12.990;2022-10-26T06:14:28;7.20;;;6.60;;
9661;SDS011;24982;52.344;12.990;2022-10-26T06:17:33;8.48;;;7.00;;
9661;SDS011;24982;52.344;12.990;2022-10-26T06:20:45;7.28;;;6.57;;
9661;SDS011;24982;52.344;12.990;2022-10-26T06:23:59;7.75;;;6.95;;
9661;SDS011;24982;52.344;12.990;2022-10-26T06:27:07;8.27;;;7.57;;
9661;SDS011;24982;52.344;12.990;2022-10-26T06:30:17;7.65;;;6.95;;
9661;SDS011;24982;52.344;12.990;2022-10-26T06:33:22;8.95;;;6.57;;
9661;SDS011;24982;52.344;12.990;2022-10-26T06:36:26;8.00;;;6.65;;
9661;SDS011;24982;52.344;12.990;2022-10-26T06:39:30;6.63;;;6.07;;
9661;SDS011;24982;52.344;12.990;2022-10-26T06:42:36;8.85;;;6.13;;
9661;SDS011;24982;52.344;12.990;2022-10-26T06:45:39;6.18;;;5.68;;
9661;SDS011;24982;52.344;12.990;2022-10-26T06:48:47;7.10;;;5.55;;
9661;SDS011;24982;52.344;12.990;2022-10-26T06:51:55;7.40;;;5.47;;
9661;SDS011;24982;52.344;12.990;2022-10-26T06:55:00;6.85;;;6.25;;
9661;SDS011;24982;52.344;12.990;2022-10-26T06:58:04;7.93;;;6.57;;
9661;SDS011;24982;52.344;12.990;2022-10-26T07:01:11;8.02;;;6.40;;
9661;SDS011;24982;52.344;12.990;2022-10-26T07:04:14;9.68;;;6.85;;
9661;SDS011;24982;52.344;12.990;2022-10-26T07:07:16;9.15;;;7.45;;
9661;SDS011;24982;52.344;12.990;2022-10-26T07:10:22;8.52;;;7.30;;
9661;SDS011;24982;52.344;12.990;2022-10-26T07:13:24;7.85;;;7.15;;
9661;SDS011;24982;52.344;12.990;2022-10-26T07:16:25;8.00;;;7.30;;
9661;SDS011;24982;52.344;12.990;2022-10-26T07:19:28;7.47;;;6.70;;
9661;SDS011;24982;52.344;12.990;2022-10-26T07:22:30;8.27;;;6.65;;
9661;SDS011;24982;52.344;12.990;2022-10-26T07:25:33;9.00;;;7.07;;
9661;SDS011;24982;52.344;12.990;2022-10-26T07:28:38;8.45;;;7.63;;
9661;SDS011;24982;52.344;12.990;2022-10-26T07:31:40;9.68;;;7.15;;
9661;SDS011;24982;52.344;12.990;2022-10-26T07:34:42;9.43;;;7.43;;
9661;SDS011;24982;52.344;12.990;2022-10-26T07:37:44;8.18;;;7.38;;
9661;SDS011;24982;52.344;12.990;2022-10-26T07:40:47;7.97;;;7.18;;
9661;SDS011;24982;52.344;12.990;2022-10-26T07:43:53;8.80;;;7.63;;
9661;SDS011;24982;52.344;12.990;2022-10-26T07:46:55;8.68;;;7.78;;
9661;SDS011;24982;52.344;12.990;2022-10-26T07:49:57;10.57;;;7.13;;
9661;SDS011;24982;52.344;12.990;2022-10-26T07:52:59;7.43;;;6.57;;
9661;SDS011;24982;52.344;12.990;2022-10-26T07:56:02;7.97;;;7.28;;
9661;SDS011;24982;52.344;12.990;2022-10-26T07:59:04;7.78;;;7.00;;
9661;SDS011;24982;52.344;12.990;2022-10-26T08:02:07;8.15;;;7.07;;
9661;SDS011;24982;52.344;12.990;2022-10-26T08:05:10;8.02;;;7.07;;
9661;SDS011;24982;52.344;12.990;2022-10-26T08:08:12;11.88;;;7.57;;
9661;SDS011;24982;52.344;12.990;2022-10-26T08:11:16;8.25;;;7.07;;
9661;SDS011;24982;52.344;12.990;2022-10-26T08:14:18;7.18;;;6.47;;
9661;SDS011;24982;52.344;12.990;2022-10-26T08:17:20;9.50;;;6.60;;
9661;SDS011;24982;52.344;12.990;2022-10-26T08:20:22;7.18;;;6.50;;
9661;SDS011;24982;52.344;12.990;2022-10-26T08:23:24;6.50;;;5.90;;
9661;SDS011;24982;52.344;12.990;2022-10-26T08:26:28;8.02;;;6.03;;
9661;SDS011;24982;52.344;12.990;2022-10-26T08:29:30;8.93;;;6.18;;
9661;SDS011;24982;52.344;12.990;2022-10-26T08:32:31;6.00;;;5.40;;
9661;SDS011;24982;52.344;12.990;2022-10-26T08:35:33;6.50;;;5.68;;
9661;SDS011;24982;52.344;12.990;2022-10-26T08:38:35;10.10;;;5.45;;
9661;SDS011;24982;52.344;12.990;2022-10-26T08:41:40;6.45;;;5.38;;
9661;SDS011;24982;52.344;12.990;2022-10-26T08:44:44;8.18;;;5.20;;
9661;SDS011;24982;52.344;12.990;2022-10-26T08:47:48;6.95;;;5.60;;
9661;SDS011;24982;52.344;12.990;2022-10-26T08:50:56;6.05;;;4.88;;
9661;SDS011;24982;52.344;12.990;2022-10-26T08:54:02;6.88;;;4.90;;
9661;SDS011;24982;52.344;12.990;2022-10-26T08:57:13;6.35;;;4.85;;
9661;SDS011;24982;52.344;12.990;2022-10-26T09:00:19;7.15;;;4.43;;
9661;SDS011;24982;52.344;12.990;2022-10-26T09:03:23;5.80;;;4.38;;
9661;SDS011;24982;52.344;12.990;2022-10-26T09:06:27;4.60;;;4.20;;
9661;SDS011;24982;52.344;12.990;2022-10-26T09:09:35;8.45;;;3.80;;
9661;SDS011;24982;52.344;12.990;2022-10-26T09:12:50;6.13;;;3.80;;
9661;SDS011;24982;52.344;12.990;2022-10-26T09:15:57;5.53;;;3.55;;
9661;SDS011;24982;52.344;12.990;2022-10-26T09:19:06;4.30;;;3.10;;
9661;SDS011;24982;52.344;12.990;2022-10-26T09:22:37;5.05;;;3.25;;
9661;SDS011;24982;52.344;12.990;2022-10-26T09:25:45;3.95;;;2.80;;
9661;SDS011;24982;52.344;12.990;2022-10-26T09:28:51;6.55;;;2.53;;
9661;SDS011;24982;52.344;12.990;2022-10-26T09:31:54;6.18;;;2.70;;
9661;SDS011;24982;52.344;12.990;2022-10-26T09:35:00;4.90;;;2.47;;
9661;SDS011;24982;52.344;12.990;2022-10-26T09:38:08;3.38;;;2.13;;
9661;SDS011;24982;52.344;12.990;2022-10-26T09:41:17;8.20;;;2.40;;
9661;SDS011;24982;52.344;12.990;2022-10-26T09:44:26;2.75;;;2.28;;
9661;SDS011;24982;52.344;12.990;2022-10-26T09:47:32;7.20;;;2.20;;
9661;SDS011;24982;52.344;12.990;2022-10-26T09:50:38;2.70;;;2.15;;
9661;SDS011;24982;52.344;12.990;2022-10-26T09:53:44;3.47;;;2.08;;
9661;SDS011;24982;52.344;12.990;2022-10-26T09:56:49;6.65;;;2.38;;
9661;SDS011;24982;52.344;12.990;2022-10-26T09:59:54;2.90;;;2.08;;
9661;SDS011;24982;52.344;12.990;2022-10-26T10:02:57;4.10;;;2.17;;
9661;SDS011;24982;52.344;12.990;2022-10-26T10:06:15;6.60;;;2.20;;
9661;SDS011;24982;52.344;12.990;2022-10-26T10:09:19;3.88;;;2.08;;
9661;SDS011;24982;52.344;12.990;2022-10-26T10:12:23;2.28;;;2.00;;
9661;SDS011;24982;52.344;12.990;2022-10-26T10:15:27;7.00;;;2.03;;
9661;SDS011;24982;52.344;12.990;2022-10-26T10:18:29;3.42;;;1.88;;
9661;SDS011;24982;52.344;12.990;2022-10-26T10:21:35;2.33;;;1.90;;
9661;SDS011;24982;52.344;12.990;2022-10-26T10:24:39;2.30;;;1.98;;
9661;SDS011;24982;52.344;12.990;2022-10-26T10:27:42;3.88;;;1.98;;
9661;SDS011;24982;52.344;12.990;2022-10-26T10:30:55;2.72;;;2.00;;
9661;SDS011;24982;52.344;12.990;2022-10-26T10:33:59;3.22;;;1.90;;
9661;SDS011;24982;52.344;12.990;2022-10-26T10:37:04;1.70;;;1.60;;
9661;SDS011;24982;52.344;12.990;2022-10-26T10:40:06;1.92;;;1.55;;
9661;SDS011;24982;52.344;12.990;2022-10-26T10:43:10;2.90;;;1.73;;
9661;SDS011;24982;52.344;12.990;2022-10-26T10:46:18;2.45;;;1.45;;
9661;SDS011;24982;52.344;12.990;2022-10-26T10:49:23;2.70;;;1.50;;
9661;SDS011;24982;52.344;12.990;2022-10-26T10:52:28;1.98;;;1.45;;
9661;SDS011;24982;52.344;12.990;2022-10-26T10:55:31;2.30;;;1.65;;
9661;SDS011;24982;52.344;12.990;2022-10-26T10:58:36;3.65;;;1.73;;
9661;SDS011;24982;52.344;12.990;2022-10-26T11:01:48;2.92;;;1.40;;
9661;SDS011;24982;52.344;12.990;2022-10-26T11:05:03;3.67;;;1.75;;
9661;SDS011;24982;52.344;12.990;2022-10-26T11:08:19;2.38;;;1.50;;
9661;SDS011;24982;52.344;12.990;2022-10-26T11:11:27;2.83;;;1.63;;
9661;SDS011;24982;52.344;12.990;2022-10-26T11:14:34;3.10;;;2.00;;
9661;SDS011;24982;52.344;12.990;2022-10-26T11:17:45;3.40;;;1.58;;
9661;SDS011;24982;52.344;12.990;2022-10-26T11:20:53;3.63;;;1.58;;
9661;SDS011;24982;52.344;12.990;2022-10-26T11:24:03;2.10;;;1.70;;
9661;SDS011;24982;52.344;12.990;2022-10-26T11:27:14;1.73;;;1.60;;
9661;SDS011;24982;52.344;12.990;2022-10-26T11:30:17;2.42;;;1.50;;
9661;SDS011;24982;52.344;12.990;2022-10-26T11:33:22;3.08;;;1.70;;
9661;SDS011;24982;52.344;12.990;2022-10-26T11:36:28;3.10;;;1.60;;
9661;SDS011;24982;52.344;12.990;2022-10-26T11:39:37;1.60;;;1.50;;
9661;SDS011;24982;52.344;12.990;2022-10-26T11:42:45;4.88;;;2.00;;
9661;SDS011;24982;52.344;12.990;2022-10-26T11:45:56;1.92;;;1.80;;
9661;SDS011;24982;52.344;12.990;2022-10-26T11:49:05;3.83;;;1.67;;
9661;SDS011;24982;52.344;12.990;2022-10-26T11:52:15;4.43;;;1.77;;
9661;SDS011;24982;52.344;12.990;2022-10-26T11:55:21;3.35;;;1.42;;
9661;SDS011;24982;52.344;12.990;2022-10-26T11:58:25;2.38;;;1.38;;
9661;SDS011;24982;52.344;12.990;2022-10-26T12:01:28;2.30;;;1.40;;
9661;SDS011;24982;52.344;12.990;2022-10-26T12:04:34;5.78;;;1.30;;
9661;SDS011;24982;52.344;12.990;2022-10-26T12:07:37;3.22;;;1.50;;
9661;SDS011;24982;52.344;12.990;2022-10-26T12:10:47;2.40;;;1.45;;
9661;SDS011;24982;52.344;12.990;2022-10-26T12:13:51;3.90;;;1.60;;
9661;SDS011;24982;52.344;12.990;2022-10-26T12:16:58;2.70;;;1.58;;
9661;SDS011;24982;52.344;12.990;2022-10-26T12:20:08;3.25;;;1.58;;
9661;SDS011;24982;52.344;12.990;2022-10-26T12:23:29;1.48;;;1.30;;
9661;SDS011;24982;52.344;12.990;2022-10-26T12:26:38;3.53;;;1.50;;
9661;SDS011;24982;52.344;12.990;2022-10-26T12:29:44;1.70;;;1.33;;
9661;SDS011;24982;52.344;12.990;2022-10-26T12:32:49;3.78;;;1.58;;
9661;SDS011;24982;52.344;12.990;2022-10-26T12:35:56;2.83;;;1.63;;
9661;SDS011;24982;52.344;12.990;2022-10-26T12:38:58;2.03;;;1.67;;
9661;SDS011;24982;52.344;12.990;2022-10-26T12:42:09;3.50;;;1.52;;
9661;SDS011;24982;52.344;12.990;2022-10-26T12:45:28;2.15;;;1.63;;
9661;SDS011;24982;52.344;12.990;2022-10-26T12:48:37;2.35;;;1.40;;
9661;SDS011;24982;52.344;12.990;2022-10-26T12:51:41;2.28;;;1.50;;
9661;SDS011;24982;52.344;12.990;2022-10-26T12:54:44;2.10;;;1.45;;
9661;SDS011;24982;52.344;12.990;2022-10-26T12:58:02;2.15;;;1.55;;
9661;SDS011;24982;52.344;12.990;2022-10-26T13:01:35;3.25;;;1.60;;
9661;SDS011;24982;52.344;12.990;2022-10-26T13:05:18;2.47;;;1.52;;
9661;SDS011;24982;52.344;12.990;2022-10-26T13:08:40;4.10;;;1.40;;
9661;SDS011;24982;52.344;12.990;2022-10-26T13:11:45;4.15;;;1.80;;
9661;SDS011;24982;52.344;12.990;2022-10-26T13:14:52;3.22;;;1.45;;
9661;SDS011;24982;52.344;12.990;2022-10-26T13:17:58;2.55;;;1.70;;
9661;SDS011;24982;52.344;12.990;2022-10-26T13:21:08;2.80;;;1.80;;
9661;SDS011;24982;52.344;12.990;2022-10-26T13:24:14;3.15;;;1.90;;
9661;SDS011;24982;52.344;12.990;2022-10-26T13:27:23;4.00;;;1.73;;
9661;SDS011;24982;52.344;12.990;2022-10-26T13:30:41;3.65;;;1.83;;
9661;SDS011;24982;52.344;12.990;2022-10-26T13:33:47;2.50;;;1.50;;
9661;SDS011;24982;52.344;12.990;2022-10-26T13:36:56;5.35;;;2.45;;
9661;SDS011;24982;52.344;12.990;2022-10-26T13:40:06;4.57;;;1.60;;
9661;SDS011;24982;52.344;12.990;2022-10-26T13:43:14;3.17;;;1.70;;
9661;SDS011;24982;52.344;12.990;2022-10-26T13:46:26;5.82;;;2.17;;
9661;SDS011;24982;52.344;12.990;2022-10-26T13:49:30;3.38;;;2.20;;
9661;SDS011;24982;52.344;12.990;2022-10-26T13:52:37;3.55;;;1.90;;
9661;SDS011;24982;52.344;12.990;2022-10-26T13:55:45;5.38;;;2.10;;
9661;SDS011;24982;52.344;12.990;2022-10-26T13:58:51;4.32;;;1.98;;
9661;SDS011;24982;52.344;12.990;2022-10-26T14:02:04;3.53;;;1.73;;
9661;SDS011;24982;52.344;12.990;2022-10-26T14:05:08;6.05;;;2.00;;
9661;SDS011;24982;52.344;12.990;2022-10-26T14:08:13;2.42;;;1.88;;
9661;SDS011;24982;52.344;12.990;2022-10-26T14:11:20;4.47;;;2.20;;
9661;SDS011;24982;52.344;12.990;2022-10-26T14:14:27;4.10;;;2.40;;
9661;SDS011;24982;52.344;12.990;2022-10-26T14:17:31;3.47;;;1.65;;
9661;SDS011;24982;52.344;12.990;2022-10-26T14:20:34;6.65;;;2.03;;
9661;SDS011;24982;52.344;12.990;2022-10-26T14:23:36;9.60;;;2.20;;
9661;SDS011;24982;52.344;12.990;2022-10-26T14:26:47;2.80;;;1.90;;
9661;SDS011;24982;52.344;12.990;2022-10-26T14:29:49;2.63;;;1.70;;
9661;SDS011;24982;52.344;12.990;2022-10-26T14:32:51;4.88;;;1.98;;
9661;SDS011;24982;52.344;12.990;2022-10-26T14:35:53;5.20;;;2.00;;
9661;SDS011;24982;52.344;12.990;2022-10-26T14:38:57;3.13;;;2.10;;
9661;SDS011;24982;52.344;12.990;2022-10-26T14:42:05;5.47;;;2.20;;
9661;SDS011;24982;52.344;12.990;2022-10-26T14:45:23;5.47;;;2.80;;
9661;SDS011;24982;52.344;12.990;2022-10-26T14:48:30;4.13;;;1.77;;
9661;SDS011;24982;52.344;12.990;2022-10-26T14:51:34;3.50;;;2.03;;
9661;SDS011;24982;52.344;12.990;2022-10-26T14:54:36;4.03;;;1.85;;
9661;SDS011;24982;52.344;12.990;2022-10-26T14:57:39;3.35;;;2.03;;
9661;SDS011;24982;52.344;12.990;2022-10-26T15:00:43;4.10;;;2.08;;
9661;SDS011;24982;52.344;12.990;2022-10-26T15:03:47;5.60;;;2.47;;
9661;SDS011;24982;52.344;12.990;2022-10-26T15:06:52;2.63;;;2.10;;
9661;SDS011;24982;52.344;12.990;2022-10-26T15:10:02;4.78;;;2.50;;
9661;SDS011;24982;52.344;12.990;2022-10-26T15:13:08;9.05;;;2.15;;
9661;SDS011;24982;52.344;12.990;2022-10-26T15:16:14;5.20;;;2.45;;
9661;SDS011;24982;52.344;12.990;2022-10-26T15:19:18;3.17;;;2.15;;
9661;SDS011;24982;52.344;12.990;2022-10-26T15:22:23;3.80;;;2.22;;
9661;SDS011;24982;52.344;12.990;2022-10-26T15:25:28;4.18;;;2.42;;
9661;SDS011;24982;52.344;12.990;2022-10-26T15:28:37;2.55;;;1.90;;
9661;SDS011;24982;52.344;12.990;2022-10-26T15:31:42;3.15;;;1.90;;
9661;SDS011;24982;52.344;12.990;2022-10-26T15:34:46;4.50;;;1.80;;
9661;SDS011;24982;52.344;12.990;2022-10-26T15:37:49;4.22;;;2.03;;
9661;SDS011;24982;52.344;12.990;2022-10-26T15:40:52;5.07;;;2.05;;
9661;SDS011;24982;52.344;12.990;2022-10-26T15:43:56;3.15;;;1.95;;
9661;SDS011;24982;52.344;12.990;2022-10-26T15:47:00;3.22;;;2.00;;
9661;SDS011;24982;52.344;12.990;2022-10-26T15:50:02;3.92;;;2.10;;
9661;SDS011;24982;52.344;12.990;2022-10-26T15:53:18;5.15;;;2.13;;
9661;SDS011;24982;52.344;12.990;2022-10-26T15:56:22;3.65;;;1.90;;
9661;SDS011;24982;52.344;12.990;2022-10-26T15:59:27;4.47;;;1.90;;
9661;SDS011;24982;52.344;12.990;2022-10-26T16:02:28;3.60;;;2.25;;
9661;SDS011;24982;52.344;12.990;2022-10-26T16:05:30;3.72;;;2.58;;
9661;SDS011;24982;52.344;12.990;2022-10-26T16:08:32;4.55;;;2.55;;
9661;SDS011;24982;52.344;12.990;2022-10-26T16:11:34;5.15;;;2.42;;
9661;SDS011;24982;52.344;12.990;2022-10-26T16:14:38;4.35;;;2.28;;
9661;SDS011;24982;52.344;12.990;2022-10-26T16:17:40;6.20;;;2.25;;
9661;SDS011;24982;52.344;12.990;2022-10-26T16:20:43;3.33;;;2.05;;
9661;SDS011;24982;52.344;12.990;2022-10-26T17:10:07;5.15;;;4.10;;
9661;SDS011;24982;52.344;12.990;2022-10-26T17:13:10;4.45;;;3.90;;
9661;SDS011;24982;52.344;12.990;2022-10-26T17:16:13;6.30;;;4.50;;
9661;SDS011;24982;52.344;12.990;2022-10-26T17:19:16;8.57;;;5.28;;
9661;SDS011;24982;52.344;12.990;2022-10-26T17:22:19;10.20;;;5.40;;
9661;SDS011;24982;52.344;12.990;2022-10-26T17:25:22;8.48;;;4.95;;
9661;SDS011;24982;52.344;12.990;2022-10-26T17:28:24;5.97;;;4.45;;
9661;SDS011;24982;52.344;12.990;2022-10-26T17:31:26;5.50;;;4.70;;
9661;SDS011;24982;52.344;12.990;2022-10-26T17:34:28;9.10;;;4.57;;
9661;SDS011;24982;52.344;12.990;2022-10-26T17:37:30;5.05;;;4.45;;
9661;SDS011;24982;52.344;12.990;2022-10-26T17:40:33;5.57;;;4.00;;
9661;SDS011;24982;52.344;12.990;2022-10-26T17:43:36;10.98;;;4.13;;
9661;SDS011;24982;52.344;12.990;2022-10-26T17:46:39;4.97;;;3.63;;
9661;SDS011;24982;52.344;12.990;2022-10-26T17:49:41;6.55;;;3.35;;
9661;SDS011;24982;52.344;12.990;2022-10-26T17:52:43;9.10;;;3.50;;
9661;SDS011;24982;52.344;12.990;2022-10-26T17:55:46;4.97;;;3.45;;
9661;SDS011;24982;52.344;12.990;2022-10-26T17:58:52;6.82;;;2.90;;
9661;SDS011;24982;52.344;12.990;2022-10-26T18:01:55;5.45;;;3.10;;
9661;SDS011;24982;52.344;12.990;2022-10-26T18:04:57;4.60;;;2.92;;
9661;SDS011;24982;52.344;12.990;2022-10-26T18:07:59;2.92;;;2.70;;
9661;SDS011;24982;52.344;12.990;2022-10-26T18:11:02;4.88;;;2.80;;
9661;SDS011;24982;52.344;12.990;2022-10-26T18:14:05;3.75;;;3.10;;
9661;SDS011;24982;52.344;12.990;2022-10-26T18:17:07;4.35;;;3.22;;
9661;SDS011;24982;52.344;12.990;2022-10-26T18:20:09;4.00;;;2.65;;
9661;SDS011;24982;52.344;12.990;2022-10-26T18:23:12;6.97;;;2.80;;
9661;SDS011;24982;52.344;12.990;2022-10-26T18:26:16;5.55;;;3.28;;
9661;SDS011;24982;52.344;12.990;2022-10-26T18:29:19;3.55;;;3.05;;
9661;SDS011;24982;52.344;12.990;2022-10-26T18:32:21;5.68;;;3.00;;
9661;SDS011;24982;52.344;12.990;2022-10-26T18:35:23;6.05;;;3.00;;
9661;SDS011;24982;52.344;12.990;2022-10-26T18:38:25;6.32;;;2.88;;
9661;SDS011;24982;52.344;12.990;2022-10-26T18:41:28;4.40;;;2.97;;
9661;SDS011;24982;52.344;12.990;2022-10-26T18:44:30;4.20;;;3.20;;
9661;SDS011;24982;52.344;12.990;2022-10-26T18:47:32;5.20;;;3.30;;
9661;SDS011;24982;52.344;12.990;2022-10-26T18:50:34;5.18;;;2.97;;
9661;SDS011;24982;52.344;12.990;2022-10-26T18:53:36;6.75;;;2.92;;
9661;SDS011;24982;52.344;12.990;2022-10-26T18:56:41;7.05;;;3.03;;
9661;SDS011;24982;52.344;12.990;2022-10-26T18:59:43;6.82;;;2.83;;
9661;SDS011;24982;52.344;12.990;2022-10-26T19:02:47;5.35;;;2.90;;
9661;SDS011;24982;52.344;12.990;2022-10-26T19:05:49;3.80;;;3.50;;
9661;SDS011;24982;52.344;12.990;2022-10-26T19:08:51;6.63;;;3.35;;
9661;SDS011;24982;52.344;12.990;2022-10-26T19:11:55;6.38;;;3.33;;
9661;SDS011;24982;52.344;12.990;2022-10-26T19:14:57;4.05;;;3.65;;
9661;SDS011;24982;52.344;12.990;2022-10-26T19:17:59;9.18;;;3.47;;
9661;SDS011;24982;52.344;12.990;2022-10-26T19:21:02;5.53;;;3.30;;
9661;SDS011;24982;52.344;12.990;2022-10-26T19:24:09;4.60;;;3.22;;
9661;SDS011;24982;52.344;12.990;2022-10-26T19:27:14;4.20;;;3.10;;